Wetterdaten: Woche 26.05.14 - 01.06.14 (KW22)
Datum Zeit Temperatur Luftfeuchte Luftdruck Niederschlag Windrichtung Sonnenschein Solar Wind
26.05.2014 00:00 13,8 C 83 % 1013,2 hPa 1,0 l/m N-NW 0,00 h 0 W/m 10,1 km/h (2 Bft)
26.05.2014 01:00 12,7 C 91 % 1012,9 hPa 0,0 l/m N-NW 0,00 h 0 W/m 7,2 km/h (2 Bft)
26.05.2014 02:00 12,0 C 93 % 1012,6 hPa 0,0 l/m N-NW 0,00 h 0 W/m 2,8 km/h (1 Bft)
26.05.2014 03:00 11,8 C 95 % 1012,5 hPa 0,0 l/m N-NW 0,00 h 0 W/m 1,9 km/h (1 Bft)
26.05.2014 04:00 11,8 C 96 % 1012,5 hPa 0,0 l/m N-NW 0,00 h 0 W/m 2,3 km/h (1 Bft)
26.05.2014 05:00 12,2 C 95 % 1012,4 hPa 0,0 l/m N 0,00 h 0 W/m 0,8 km/h (0 Bft)
26.05.2014 06:00 12,4 C 94 % 1012,2 hPa 0,0 l/m N 0,00 h 21 W/m 0,8 km/h (0 Bft)
26.05.2014 07:00 13,0 C 94 % 1012,3 hPa 0,0 l/m W-NW 0,08 h 100 W/m 3,1 km/h (1 Bft)
26.05.2014 08:00 14,7 C 87 % 1012,5 hPa 0,0 l/m W-NW 0,67 h 283 W/m 6,0 km/h (2 Bft)
26.05.2014 09:00 15,6 C 82 % 1012,5 hPa 0,0 l/m N-NO 0,25 h 229 W/m 6,8 km/h (2 Bft)
26.05.2014 10:00 16,0 C 81 % 1012,4 hPa 0,0 l/m N 0,33 h 355 W/m 6,4 km/h (2 Bft)
26.05.2014 11:00 17,5 C 74 % 1011,8 hPa 0,0 l/m N 0,42 h 514 W/m 6,1 km/h (2 Bft)
26.05.2014 12:00 18,6 C 70 % 1011,2 hPa 0,0 l/m NW 0,50 h 512 W/m 7,6 km/h (2 Bft)
26.05.2014 13:00 19,9 C 65 % 1010,6 hPa 0,0 l/m NW 0,50 h 493 W/m 6,4 km/h (2 Bft)
26.05.2014 14:00 19,1 C 69 % 1010,2 hPa 0,0 l/m W-SW 0,00 h 177 W/m 6,1 km/h (2 Bft)
26.05.2014 15:00 17,3 C 69 % 1010,0 hPa 0,0 l/m O-SO 0,00 h 136 W/m 16,2 km/h (3 Bft)
26.05.2014 16:00 15,1 C 77 % 1009,8 hPa 0,0 l/m O-NO 0,00 h 155 W/m 9,3 km/h (2 Bft)
26.05.2014 17:00 16,9 C 73 % 1009,1 hPa 0,0 l/m O-NO 0,08 h 232 W/m 4,0 km/h (1 Bft)
26.05.2014 18:00 16,8 C 75 % 1009,2 hPa 0,6 l/m O-NO 0,00 h 58 W/m 12,6 km/h (3 Bft)
26.05.2014 19:00 14,1 C 90 % 1009,2 hPa 0,4 l/m N 0,00 h 48 W/m 10,5 km/h (2 Bft)
26.05.2014 20:00 13,5 C 92 % 1009,3 hPa 0,0 l/m N-NW 0,00 h 14 W/m 5,1 km/h (1 Bft)
26.05.2014 21:00 13,1 C 94 % 1009,3 hPa 0,0 l/m N 0,00 h 0 W/m 0,9 km/h (0 Bft)
26.05.2014 22:00 12,8 C 96 % 1009,3 hPa 0,0 l/m N 0,00 h 0 W/m 2,3 km/h (1 Bft)
26.05.2014 23:00 12,6 C 96 % 1009,3 hPa 0,0 l/m N 0,00 h 0 W/m 0,1 km/h (0 Bft)
27.05.2014 00:00 12,4 C 96 % 1009,4 hPa 0,0 l/m N-NW 0,00 h 0 W/m 1,5 km/h (1 Bft)
27.05.2014 01:00 12,3 C 95 % 1008,9 hPa 0,0 l/m N-NW 0,00 h 0 W/m 2,5 km/h (1 Bft)
27.05.2014 02:00 12,1 C 94 % 1008,6 hPa 0,0 l/m N-NW 0,00 h 0 W/m 1,9 km/h (1 Bft)
27.05.2014 03:00 11,4 C 96 % 1008,4 hPa 0,0 l/m N 0,00 h 0 W/m 0,7 km/h (0 Bft)
27.05.2014 04:00 11,3 C 97 % 1008,2 hPa 0,0 l/m N-NW 0,00 h 0 W/m 1,5 km/h (1 Bft)
27.05.2014 05:00 11,7 C 97 % 1008,1 hPa 0,0 l/m N 0,00 h 0 W/m 1,3 km/h (1 Bft)
27.05.2014 06:00 11,8 C 96 % 1008,3 hPa 0,0 l/m N-NW 0,00 h 13 W/m 2,8 km/h (1 Bft)
27.05.2014 07:00 12,0 C 97 % 1008,5 hPa 0,0 l/m N-NW 0,00 h 33 W/m 2,7 km/h (1 Bft)
27.05.2014 08:00 12,6 C 96 % 1008,8 hPa 0,0 l/m W-NW 0,00 h 55 W/m 3,4 km/h (1 Bft)
27.05.2014 09:00 12,9 C 93 % 1009,1 hPa 0,0 l/m W-NW 0,00 h 69 W/m 11,7 km/h (2 Bft)
27.05.2014 10:00 13,3 C 92 % 1009,3 hPa 0,0 l/m W-NW 0,00 h 96 W/m 10,9 km/h (2 Bft)
27.05.2014 11:00 13,5 C 90 % 1009,6 hPa 0,0 l/m W 0,00 h 85 W/m 10,7 km/h (2 Bft)
27.05.2014 12:00 13,4 C 90 % 1009,9 hPa 4,8 l/m W-SW 0,00 h 62 W/m 13,6 km/h (3 Bft)
27.05.2014 13:00 12,3 C 97 % 1010,1 hPa 0,8 l/m W-SW 0,00 h 91 W/m 11,0 km/h (2 Bft)
27.05.2014 14:00 13,8 C 94 % 1010,1 hPa 0,0 l/m W-SW 0,17 h 288 W/m 19,0 km/h (3 Bft)
27.05.2014 15:00 13,1 C 94 % 1010,0 hPa 0,0 l/m W-SW 0,00 h 137 W/m 21,4 km/h (4 Bft)
27.05.2014 16:00 13,1 C 94 % 1010,3 hPa 0,4 l/m W-SW 0,00 h 180 W/m 22,9 km/h (4 Bft)
27.05.2014 17:00 12,4 C 94 % 1010,5 hPa 0,0 l/m W 0,00 h 42 W/m 16,5 km/h (3 Bft)
27.05.2014 18:00 12,3 C 95 % 1010,4 hPa 0,0 l/m W-SW 0,00 h 49 W/m 13,2 km/h (3 Bft)
27.05.2014 19:00 12,6 C 95 % 1010,7 hPa 0,0 l/m SW 0,00 h 53 W/m 12,0 km/h (2 Bft)
27.05.2014 20:00 12,3 C 96 % 1010,9 hPa 0,0 l/m SW 0,00 h 14 W/m 8,7 km/h (2 Bft)
27.05.2014 21:00 11,9 C 93 % 1011,2 hPa 0,0 l/m W-SW 0,00 h 0 W/m 8,7 km/h (2 Bft)
27.05.2014 22:00 11,6 C 93 % 1011,6 hPa 0,0 l/m W-SW 0,00 h 0 W/m 8,7 km/h (2 Bft)
27.05.2014 23:00 11,4 C 94 % 1012,1 hPa 0,0 l/m SW 0,00 h 0 W/m 3,1 km/h (1 Bft)
28.05.2014 00:00 11,0 C 94 % 1012,1 hPa 0,0 l/m SW 0,00 h 0 W/m 8,4 km/h (2 Bft)
28.05.2014 01:00 10,8 C 94 % 1012,0 hPa 0,0 l/m SW 0,00 h 0 W/m 7,1 km/h (2 Bft)
28.05.2014 02:00 10,3 C 96 % 1011,6 hPa 0,0 l/m SW 0,00 h 0 W/m 5,7 km/h (1 Bft)
28.05.2014 03:00 10,1 C 96 % 1011,3 hPa 0,0 l/m SW 0,00 h 0 W/m 9,7 km/h (2 Bft)
28.05.2014 04:00 9,9 C 96 % 1011,0 hPa 0,0 l/m SW 0,00 h 0 W/m 10,5 km/h (2 Bft)
28.05.2014 05:00 9,7 C 96 % 1011,0 hPa 0,0 l/m SW 0,00 h 9 W/m 10,6 km/h (2 Bft)
28.05.2014 06:00 9,5 C 96 % 1011,0 hPa 0,0 l/m W-SW 0,00 h 34 W/m 10,6 km/h (2 Bft)
28.05.2014 07:00 10,3 C 94 % 1011,1 hPa 0,0 l/m W-SW 0,00 h 84 W/m 6,8 km/h (2 Bft)
28.05.2014 08:00 11,1 C 93 % 1011,3 hPa 0,0 l/m W-SW 0,00 h 99 W/m 5,9 km/h (2 Bft)
28.05.2014 09:00 12,4 C 87 % 1011,4 hPa 0,0 l/m W-SW 0,00 h 172 W/m 8,8 km/h (2 Bft)
28.05.2014 10:00 13,1 C 80 % 1011,4 hPa 0,0 l/m W-SW 0,00 h 249 W/m 9,4 km/h (2 Bft)
28.05.2014 11:00 13,9 C 77 % 1011,3 hPa 0,0 l/m W-SW 0,17 h 175 W/m 8,3 km/h (2 Bft)
28.05.2014 12:00 13,9 C 76 % 1011,0 hPa 0,0 l/m W 0,00 h 141 W/m 7,8 km/h (2 Bft)
28.05.2014 13:00 14,5 C 75 % 1011,1 hPa 0,0 l/m W 0,17 h 318 W/m 9,9 km/h (2 Bft)
28.05.2014 14:00 14,8 C 71 % 1010,7 hPa 0,0 l/m W-SW 0,00 h 190 W/m 10,9 km/h (2 Bft)
28.05.2014 15:00 16,1 C 67 % 1010,4 hPa 0,0 l/m W-NW 0,25 h 310 W/m 12,2 km/h (2 Bft)
28.05.2014 16:00 15,8 C 67 % 1010,2 hPa 0,0 l/m W-NW 0,00 h 190 W/m 10,2 km/h (2 Bft)
28.05.2014 17:00 16,3 C 64 % 1010,0 hPa 0,0 l/m W 0,08 h 249 W/m 8,9 km/h (2 Bft)
28.05.2014 18:00 16,4 C 64 % 1010,0 hPa 0,0 l/m N 0,00 h 165 W/m 10,1 km/h (2 Bft)
28.05.2014 19:00 15,8 C 65 % 1010,0 hPa 0,0 l/m N-NO 0,17 h 92 W/m 5,1 km/h (1 Bft)
28.05.2014 20:00 14,0 C 77 % 1010,3 hPa 0,0 l/m N 0,00 h 21 W/m 2,7 km/h (1 Bft)
28.05.2014 21:00 12,5 C 85 % 1010,7 hPa 0,0 l/m N-NO 0,00 h 0 W/m 2,3 km/h (1 Bft)
28.05.2014 22:00 12,7 C 85 % 1011,4 hPa 0,0 l/m N-NO 0,00 h 0 W/m 2,9 km/h (1 Bft)
28.05.2014 23:00 12,2 C 88 % 1011,6 hPa 0,0 l/m N 0,00 h 0 W/m 1,1 km/h (0 Bft)
29.05.2014 00:00 12,0 C 90 % 1011,6 hPa 0,0 l/m N 0,00 h 0 W/m 1,5 km/h (1 Bft)
29.05.2014 01:00 11,7 C 91 % 1011,4 hPa 0,0 l/m N 0,00 h 0 W/m 2,3 km/h (1 Bft)
29.05.2014 02:00 11,3 C 91 % 1011,4 hPa 0,0 l/m N-NO 0,00 h 0 W/m 0,4 km/h (0 Bft)
29.05.2014 03:00 10,7 C 91 % 1011,5 hPa 0,0 l/m N 0,00 h 0 W/m 0,1 km/h (0 Bft)
29.05.2014 04:00 9,5 C 94 % 1011,8 hPa 0,0 l/m N 0,00 h 0 W/m 0,0 km/h (0 Bft)
29.05.2014 05:00 8,7 C 96 % 1012,0 hPa 0,0 l/m N-NO 0,00 h 7 W/m 1,3 km/h (1 Bft)
29.05.2014 06:00 8,6 C 98 % 1012,1 hPa 0,0 l/m N 0,00 h 31 W/m 0,1 km/h (0 Bft)
29.05.2014 07:00 9,2 C 98 % 1012,1 hPa 0,0 l/m N 0,42 h 149 W/m 0,3 km/h (0 Bft)
29.05.2014 08:00 11,7 C 95 % 1012,3 hPa 0,0 l/m N-NO 0,67 h 291 W/m 2,5 km/h (1 Bft)
29.05.2014 09:00 14,9 C 76 % 1012,3 hPa 0,0 l/m N-NW 1,00 h 548 W/m 7,0 km/h (2 Bft)
29.05.2014 10:00 16,4 C 59 % 1012,3 hPa 0,0 l/m N-NW 0,92 h 619 W/m 10,4 km/h (2 Bft)
29.05.2014 11:00 17,4 C 52 % 1012,2 hPa 0,0 l/m N-NW 0,92 h 809 W/m 10,3 km/h (2 Bft)
29.05.2014 12:00 16,7 C 57 % 1012,1 hPa 0,0 l/m N-NW 0,00 h 115 W/m 9,8 km/h (2 Bft)
29.05.2014 13:00 16,1 C 60 % 1012,2 hPa 0,0 l/m N-NW 0,00 h 182 W/m 6,7 km/h (2 Bft)
29.05.2014 14:00 17,7 C 57 % 1011,9 hPa 0,0 l/m SW 0,42 h 437 W/m 12,5 km/h (3 Bft)
29.05.2014 15:00 16,0 C 63 % 1012,3 hPa 0,0 l/m N-NO 0,00 h 114 W/m 11,3 km/h (2 Bft)
29.05.2014 16:00 15,6 C 67 % 1012,3 hPa 0,0 l/m O 0,00 h 155 W/m 10,5 km/h (2 Bft)
29.05.2014 17:00 15,7 C 67 % 1012,3 hPa 0,0 l/m O-NO 0,00 h 133 W/m 6,5 km/h (2 Bft)
29.05.2014 18:00 15,7 C 67 % 1012,5 hPa 0,0 l/m O-NO 0,00 h 89 W/m 4,0 km/h (1 Bft)
29.05.2014 19:00 15,4 C 68 % 1012,9 hPa 0,0 l/m O-NO 0,00 h 40 W/m 2,4 km/h (1 Bft)
29.05.2014 20:00 14,8 C 73 % 1013,4 hPa 0,0 l/m N-NO 0,00 h 12 W/m 9,0 km/h (2 Bft)
29.05.2014 21:00 14,1 C 77 % 1014,0 hPa 0,0 l/m N-NO 0,00 h 0 W/m 6,1 km/h (2 Bft)
29.05.2014 22:00 13,5 C 83 % 1014,5 hPa 0,0 l/m N 0,00 h 0 W/m 2,3 km/h (1 Bft)
29.05.2014 23:00 12,7 C 87 % 1014,5 hPa 0,0 l/m N 0,00 h 0 W/m 0,7 km/h (0 Bft)
30.05.2014 00:00 12,3 C 89 % 1014,7 hPa 0,0 l/m N-NO 0,00 h 0 W/m 1,6 km/h (1 Bft)
30.05.2014 01:00 11,5 C 93 % 1014,6 hPa 0,4 l/m N-NO 0,00 h 0 W/m 4,3 km/h (1 Bft)
30.05.2014 02:00 11,3 C 95 % 1014,6 hPa 0,0 l/m N-NO 0,00 h 0 W/m 2,8 km/h (1 Bft)
30.05.2014 03:00 11,0 C 95 % 1014,6 hPa 0,0 l/m N-NO 0,00 h 0 W/m 2,1 km/h (1 Bft)
30.05.2014 04:00 10,7 C 96 % 1014,4 hPa 0,0 l/m N 0,00 h 0 W/m 1,7 km/h (1 Bft)
30.05.2014 05:00 10,6 C 96 % 1014,6 hPa 0,0 l/m N 0,00 h 6 W/m 2,0 km/h (1 Bft)
30.05.2014 06:00 10,7 C 96 % 1014,6 hPa 0,2 l/m N-NO 0,00 h 9 W/m 3,7 km/h (1 Bft)
30.05.2014 07:00 9,4 C 96 % 1015,2 hPa 0,0 l/m N-NO 0,00 h 18 W/m 12,2 km/h (2 Bft)
30.05.2014 08:00 8,3 C 96 % 1015,9 hPa 0,0 l/m NO 0,00 h 40 W/m 10,1 km/h (2 Bft)
30.05.2014 09:00 8,6 C 95 % 1016,4 hPa 0,0 l/m NO 0,00 h 81 W/m 9,4 km/h (2 Bft)
30.05.2014 10:00 8,6 C 95 % 1017,0 hPa 0,0 l/m NO 0,00 h 96 W/m 11,8 km/h (2 Bft)
30.05.2014 11:00 9,3 C 94 % 1017,3 hPa 0,0 l/m NO 0,00 h 204 W/m 13,0 km/h (3 Bft)
30.05.2014 12:00 10,7 C 86 % 1017,4 hPa 0,0 l/m NO 0,00 h 244 W/m 13,7 km/h (3 Bft)
30.05.2014 13:00 11,0 C 82 % 1017,6 hPa 0,0 l/m O-NO 0,00 h 255 W/m 14,2 km/h (3 Bft)
30.05.2014 14:00 11,1 C 81 % 1017,8 hPa 0,0 l/m O-NO 0,00 h 195 W/m 16,4 km/h (3 Bft)
30.05.2014 15:00 11,3 C 78 % 1018,1 hPa 0,0 l/m O-NO 0,00 h 143 W/m 11,6 km/h (2 Bft)
30.05.2014 16:00 11,6 C 76 % 1018,1 hPa 0,0 l/m O 0,00 h 124 W/m 8,0 km/h (2 Bft)
30.05.2014 17:00 11,4 C 77 % 1018,3 hPa 0,0 l/m O-NO 0,00 h 126 W/m 16,0 km/h (3 Bft)
30.05.2014 18:00 11,3 C 76 % 1018,2 hPa 0,0 l/m NO 0,00 h 117 W/m 13,6 km/h (3 Bft)
30.05.2014 19:00 10,6 C 77 % 1018,4 hPa 0,0 l/m O 0,00 h 30 W/m 12,2 km/h (2 Bft)
30.05.2014 20:00 10,0 C 78 % 1018,7 hPa 0,0 l/m O 0,00 h 14 W/m 12,5 km/h (3 Bft)
30.05.2014 21:00 9,4 C 77 % 1018,9 hPa 0,0 l/m O 0,00 h 0 W/m 9,3 km/h (2 Bft)
30.05.2014 22:00 8,6 C 81 % 1019,1 hPa 0,0 l/m O 0,00 h 0 W/m 5,6 km/h (1 Bft)
30.05.2014 23:00 6,4 C 90 % 1019,2 hPa 0,0 l/m N 0,00 h 0 W/m 1,1 km/h (0 Bft)
31.05.2014 00:00 5,5 C 93 % 1019,4 hPa 0,0 l/m N 0,00 h 0 W/m 2,3 km/h (1 Bft)
31.05.2014 01:00 5,0 C 94 % 1019,3 hPa 0,0 l/m O 0,00 h 0 W/m 3,9 km/h (1 Bft)
31.05.2014 02:00 4,7 C 95 % 1019,2 hPa 0,0 l/m O-NO 0,00 h 0 W/m 5,3 km/h (1 Bft)
31.05.2014 03:00 4,6 C 95 % 1019,0 hPa 0,0 l/m O-NO 0,00 h 0 W/m 5,1 km/h (1 Bft)
31.05.2014 04:00 4,3 C 95 % 1018,8 hPa 0,0 l/m NO 0,00 h 0 W/m 4,9 km/h (1 Bft)
31.05.2014 05:00 4,1 C 95 % 1018,8 hPa 0,0 l/m N-NO 0,00 h 8 W/m 6,1 km/h (2 Bft)
31.05.2014 06:00 5,0 C 95 % 1019,0 hPa 0,0 l/m N-NO 0,50 h 84 W/m 8,7 km/h (2 Bft)
31.05.2014 07:00 7,0 C 90 % 1019,2 hPa 0,0 l/m N-NO 1,00 h 209 W/m 9,8 km/h (2 Bft)
31.05.2014 08:00 9,4 C 81 % 1019,5 hPa 0,0 l/m O-NO 1,00 h 376 W/m 13,3 km/h (3 Bft)
31.05.2014 09:00 11,6 C 70 % 1019,5 hPa 0,0 l/m O 1,00 h 539 W/m 20,0 km/h (4 Bft)
31.05.2014 10:00 13,0 C 62 % 1019,4 hPa 0,0 l/m O-NO 1,00 h 692 W/m 23,7 km/h (4 Bft)
31.05.2014 11:00 14,7 C 57 % 1019,3 hPa 0,0 l/m O-NO 0,92 h 782 W/m 23,0 km/h (4 Bft)
31.05.2014 12:00 15,5 C 56 % 1019,0 hPa 0,0 l/m NO 0,75 h 774 W/m 20,2 km/h (4 Bft)
31.05.2014 13:00 16,6 C 51 % 1018,8 hPa 0,0 l/m O 0,75 h 769 W/m 22,4 km/h (4 Bft)
31.05.2014 14:00 17,5 C 47 % 1018,6 hPa 0,0 l/m O 0,75 h 804 W/m 21,6 km/h (4 Bft)
31.05.2014 15:00 18,1 C 46 % 1018,3 hPa 0,0 l/m O-NO 0,83 h 727 W/m 19,6 km/h (3 Bft)
31.05.2014 16:00 18,0 C 45 % 1018,0 hPa 0,0 l/m O-NO 0,75 h 632 W/m 17,2 km/h (3 Bft)
31.05.2014 17:00 18,5 C 44 % 1017,8 hPa 0,0 l/m N-NO 0,75 h 468 W/m 14,0 km/h (3 Bft)
31.05.2014 18:00 17,8 C 46 % 1017,8 hPa 0,0 l/m NO 0,42 h 255 W/m 14,9 km/h (3 Bft)
31.05.2014 19:00 16,5 C 51 % 1018,0 hPa 0,0 l/m O-NO 0,25 h 127 W/m 12,1 km/h (2 Bft)
31.05.2014 20:00 15,2 C 57 % 1017,9 hPa 0,0 l/m O-NO 0,08 h 40 W/m 5,2 km/h (1 Bft)
31.05.2014 21:00 12,4 C 70 % 1018,2 hPa 0,0 l/m O-NO 0,00 h 5 W/m 2,0 km/h (1 Bft)
31.05.2014 22:00 10,8 C 77 % 1018,6 hPa 0,0 l/m N 0,00 h 0 W/m 2,1 km/h (1 Bft)
31.05.2014 23:00 9,3 C 83 % 1018,7 hPa 0,0 l/m N 0,00 h 0 W/m 0,0 km/h (0 Bft)
01.06.2014 00:00 8,8 C 86 % 1018,7 hPa 0,0 l/m N 0,00 h 0 W/m 0,5 km/h (0 Bft)
01.06.2014 01:00 8,8 C 85 % 1018,4 hPa 0,0 l/m N 0,00 h 0 W/m 2,0 km/h (1 Bft)
01.06.2014 02:00 7,9 C 88 % 1018,1 hPa 0,0 l/m N 0,00 h 0 W/m 0,0 km/h (0 Bft)
01.06.2014 03:00 7,5 C 90 % 1017,8 hPa 0,0 l/m N 0,00 h 0 W/m 0,8 km/h (0 Bft)
01.06.2014 04:00 6,9 C 91 % 1017,6 hPa 0,0 l/m N 0,00 h 0 W/m 0,3 km/h (0 Bft)
01.06.2014 05:00 6,3 C 92 % 1017,7 hPa 0,0 l/m N 0,08 h 14 W/m 0,9 km/h (0 Bft)
01.06.2014 06:00 6,7 C 92 % 1017,8 hPa 0,0 l/m N 0,00 h 38 W/m 0,3 km/h (0 Bft)
01.06.2014 07:00 9,7 C 85 % 1017,8 hPa 0,0 l/m O-NO 0,75 h 179 W/m 2,8 km/h (1 Bft)
01.06.2014 08:00 11,3 C 84 % 1017,9 hPa 0,0 l/m O-NO 0,83 h 322 W/m 2,9 km/h (1 Bft)
01.06.2014 09:00 14,4 C 69 % 1017,8 hPa 0,0 l/m O-NO 1,00 h 526 W/m 3,9 km/h (1 Bft)
01.06.2014 10:00 16,5 C 56 % 1017,5 hPa 0,0 l/m O 0,75 h 575 W/m 6,8 km/h (2 Bft)
01.06.2014 11:00 17,5 C 50 % 1017,1 hPa 0,0 l/m O-SO 0,42 h 467 W/m 8,0 km/h (2 Bft)
01.06.2014 12:00 16,3 C 54 % 1017,1 hPa 0,0 l/m N-NO 0,00 h 123 W/m 8,6 km/h (2 Bft)
01.06.2014 13:00 17,4 C 52 % 1017,1 hPa 0,0 l/m O 0,25 h 417 W/m 10,8 km/h (2 Bft)
01.06.2014 14:00 18,5 C 45 % 1016,7 hPa 0,0 l/m O-NO 0,58 h 594 W/m 11,0 km/h (2 Bft)
01.06.2014 15:00 18,8 C 46 % 1016,4 hPa 0,0 l/m N-NO 0,42 h 559 W/m 10,3 km/h (2 Bft)
01.06.2014 16:00 19,2 C 44 % 1016,1 hPa 0,0 l/m O 0,58 h 488 W/m 12,1 km/h (2 Bft)
01.06.2014 17:00 19,9 C 41 % 1015,7 hPa 0,0 l/m N-NO 1,00 h 537 W/m 10,9 km/h (2 Bft)
01.06.2014 18:00 19,2 C 43 % 1015,5 hPa 0,0 l/m N-NO 0,67 h 297 W/m 13,8 km/h (3 Bft)
01.06.2014 19:00 17,4 C 50 % 1015,6 hPa 0,0 l/m N 0,00 h 62 W/m 4,8 km/h (1 Bft)
01.06.2014 20:00 15,5 C 61 % 1015,8 hPa 0,0 l/m N 0,00 h 11 W/m 0,7 km/h (0 Bft)
01.06.2014 21:00 14,5 C 65 % 1016,2 hPa 0,0 l/m N 0,00 h 0 W/m 0,8 km/h (0 Bft)
01.06.2014 22:00 14,0 C 68 % 1016,3 hPa 0,0 l/m N 0,00 h 0 W/m 1,2 km/h (1 Bft)
01.06.2014 23:00 13,3 C 71 % 1016,4 hPa 0,0 l/m N 0,00 h 0 W/m 1,3 km/h (1 Bft)
Min-Datum _ 31.05.14 31.05.14 27.05.14 - - - - 26.05.14
_ Min-Zeit 05:10 16:25 05:05 - - - - 00:20
Minimum _ 4,1 C 40 % 1008,0 hPa - - - - 0,0 km/h (0 Bft)
Max-Datum _ 26.05.14 29.05.14 31.05.14 27.05.14 - 26.05.14 01.06.14 27.05.14
_ Max-Zeit 13:35 07:35 08:50 12:35 - 07:55 14:10 16:50
Maximum _ 20,6 C 99 % 1019,6 hPa 4,8 l/m - 0,08 h 1081 W/m 32,2 km/h
W-SW (5 Bft)
Durchschnitt _ 12,7 C 81 % 1013,8 hPa #8,6 l/m O-NO #26:15 h 225 W/m 7,4 km/h (2 Bft)